sensor_id;sensor_type;location;lat;lon;timestamp;pressure;altitude;pressure_sealevel;temperature;humidity
14232;BME280;7200;52.194;9.900;2022-11-18T00:00:43;99084.34;;;5.68;100.00
14232;BME280;7200;52.194;9.900;2022-11-18T00:03:08;99085.34;;;5.65;100.00
14232;BME280;7200;52.194;9.900;2022-11-18T00:05:34;99084.41;;;5.66;100.00
14232;BME280;7200;52.194;9.900;2022-11-18T00:07:59;99087.94;;;5.65;100.00
14232;BME280;7200;52.194;9.900;2022-11-18T00:10:24;99082.03;;;5.60;100.00
14232;BME280;7200;52.194;9.900;2022-11-18T00:12:50;99085.69;;;5.56;100.00
14232;BME280;7200;52.194;9.900;2022-11-18T00:15:34;99091.59;;;5.61;100.00
14232;BME280;7200;52.194;9.900;2022-11-18T00:17:59;99076.13;;;5.55;100.00
14232;BME280;7200;52.194;9.900;2022-11-18T00:20:24;99084.00;;;5.54;100.00
14232;BME280;7200;52.194;9.900;2022-11-18T00:22:49;99086.47;;;5.58;100.00
14232;BME280;7200;52.194;9.900;2022-11-18T00:25:15;99093.47;;;5.58;100.00
14232;BME280;7200;52.194;9.900;2022-11-18T00:27:40;99085.72;;;5.55;100.00
14232;BME280;7200;52.194;9.900;2022-11-18T00:30:06;99087.25;;;5.60;100.00
14232;BME280;7200;52.194;9.900;2022-11-18T00:32:31;99089.88;;;5.60;100.00
14232;BME280;7200;52.194;9.900;2022-11-18T00:34:57;99088.34;;;5.55;100.00
14232;BME280;7200;52.194;9.900;2022-11-18T00:37:22;99090.16;;;5.53;100.00
14232;BME280;7200;52.194;9.900;2022-11-18T00:39:48;99089.16;;;5.57;100.00
14232;BME280;7200;52.194;9.900;2022-11-18T00:42:16;99089.31;;;5.52;100.00
14232;BME280;7200;52.194;9.900;2022-11-18T00:45:00;99099.66;;;5.55;100.00
14232;BME280;7200;52.194;9.900;2022-11-18T00:47:25;99107.50;;;5.55;100.00
14232;BME280;7200;52.194;9.900;2022-11-18T00:49:50;99113.44;;;5.60;100.00
14232;BME280;7200;52.194;9.900;2022-11-18T00:52:16;99105.63;;;5.59;100.00
14232;BME280;7200;52.194;9.900;2022-11-18T00:54:41;99109.97;;;5.60;100.00
14232;BME280;7200;52.194;9.900;2022-11-18T00:57:06;99102.16;;;5.58;100.00
14232;BME280;7200;52.194;9.900;2022-11-18T00:59:32;99103.19;;;5.54;100.00
14232;BME280;7200;52.194;9.900;2022-11-18T01:01:57;99104.84;;;5.57;100.00
14232;BME280;7200;52.194;9.900;2022-11-18T01:04:22;99107.41;;;5.58;100.00
14232;BME280;7200;52.194;9.900;2022-11-18T01:06:48;99109.19;;;5.58;100.00
14232;BME280;7200;52.194;9.900;2022-11-18T01:09:13;99106.66;;;5.55;100.00
14232;BME280;7200;52.194;9.900;2022-11-18T01:11:38;99112.88;;;5.52;100.00
14232;BME280;7200;52.194;9.900;2022-11-18T01:14:25;99114.47;;;5.56;100.00
14232;BME280;7200;52.194;9.900;2022-11-18T01:16:55;99114.50;;;5.55;100.00
14232;BME280;7200;52.194;9.900;2022-11-18T01:19:20;99115.25;;;5.58;100.00
14232;BME280;7200;52.194;9.900;2022-11-18T01:21:46;99124.00;;;5.57;100.00
14232;BME280;7200;52.194;9.900;2022-11-18T01:24:13;99116.34;;;5.53;100.00
14232;BME280;7200;52.194;9.900;2022-11-18T01:26:39;99122.88;;;5.64;100.00
14232;BME280;7200;52.194;9.900;2022-11-18T01:29:04;99113.47;;;5.59;100.00
14232;BME280;7200;52.194;9.900;2022-11-18T01:31:29;99101.63;;;5.50;100.00
14232;BME280;7200;52.194;9.900;2022-11-18T01:33:55;99102.28;;;5.55;100.00
14232;BME280;7200;52.194;9.900;2022-11-18T01:36:25;99112.78;;;5.54;100.00
14232;BME280;7200;52.194;9.900;2022-11-18T01:38:52;99122.41;;;5.53;100.00
14232;BME280;7200;52.194;9.900;2022-11-18T01:41:20;99130.94;;;5.58;100.00
14232;BME280;7200;52.194;9.900;2022-11-18T01:46:24;99138.50;;;5.66;100.00
14232;BME280;7200;52.194;9.900;2022-11-18T01:51:25;99130.16;;;5.56;100.00
14232;BME280;7200;52.194;9.900;2022-11-18T01:53:57;99127.59;;;5.55;100.00
14232;BME280;7200;52.194;9.900;2022-11-18T01:56:29;99146.38;;;5.66;100.00
14232;BME280;7200;52.194;9.900;2022-11-18T01:59:02;99142.91;;;5.65;100.00
14232;BME280;7200;52.194;9.900;2022-11-18T02:01:29;99123.63;;;5.44;100.00
14232;BME280;7200;52.194;9.900;2022-11-18T02:03:54;99130.53;;;5.45;100.00
14232;BME280;7200;52.194;9.900;2022-11-18T02:06:20;99130.53;;;5.45;100.00
14232;BME280;7200;52.194;9.900;2022-11-18T02:08:46;99130.78;;;5.39;100.00
14232;BME280;7200;52.194;9.900;2022-11-18T02:11:14;99133.94;;;5.47;100.00
14232;BME280;7200;52.194;9.900;2022-11-18T02:14:00;99127.13;;;5.43;100.00
14232;BME280;7200;52.194;9.900;2022-11-18T02:16:38;99134.78;;;5.48;100.00
14232;BME280;7200;52.194;9.900;2022-11-18T02:30:23;99129.34;;;5.31;100.00
14232;BME280;7200;52.194;9.900;2022-11-18T02:33:21;99138.66;;;5.38;100.00
14232;BME280;7200;52.194;9.900;2022-11-18T02:36:03;99144.53;;;5.44;100.00
14232;BME280;7200;52.194;9.900;2022-11-18T02:38:35;99149.97;;;5.38;100.00
14232;BME280;7200;52.194;9.900;2022-11-18T02:41:04;99159.38;;;5.44;100.00
14232;BME280;7200;52.194;9.900;2022-11-18T02:43:54;99152.53;;;5.40;100.00
14232;BME280;7200;52.194;9.900;2022-11-18T02:46:32;99144.97;;;5.32;100.00
14232;BME280;7200;52.194;9.900;2022-11-18T02:49:01;99156.94;;;5.39;100.00
14232;BME280;7200;52.194;9.900;2022-11-18T02:51:28;99157.81;;;5.38;100.00
14232;BME280;7200;52.194;9.900;2022-11-18T02:53:58;99165.53;;;5.43;100.00
14232;BME280;7200;52.194;9.900;2022-11-18T02:56:26;99159.31;;;5.45;100.00
14232;BME280;7200;52.194;9.900;2022-11-18T02:58:52;99162.03;;;5.42;100.00
14232;BME280;7200;52.194;9.900;2022-11-18T03:01:22;99156.94;;;5.39;100.00
14232;BME280;7200;52.194;9.900;2022-11-18T03:03:48;99164.41;;;5.50;100.00
14232;BME280;7200;52.194;9.900;2022-11-18T03:09:05;99170.47;;;5.51;100.00
14232;BME280;7200;52.194;9.900;2022-11-18T03:11:43;99171.38;;;5.50;100.00
14232;BME280;7200;52.194;9.900;2022-11-18T03:17:02;99163.00;;;5.40;100.00
14232;BME280;7200;52.194;9.900;2022-11-18T03:22:51;99154.41;;;5.36;100.00
14232;BME280;7200;52.194;9.900;2022-11-18T03:25:30;99163.19;;;5.35;100.00
14232;BME280;7200;52.194;9.900;2022-11-18T03:28:24;99161.91;;;5.22;100.00
14232;BME280;7200;52.194;9.900;2022-11-18T03:31:06;99164.41;;;5.25;100.00
14232;BME280;7200;52.194;9.900;2022-11-18T03:33:36;99167.88;;;5.25;100.00
14232;BME280;7200;52.194;9.900;2022-11-18T03:36:07;99186.19;;;5.25;100.00
14232;BME280;7200;52.194;9.900;2022-11-18T03:38:50;99176.91;;;5.17;100.00
14232;BME280;7200;52.194;9.900;2022-11-18T03:41:19;99200.78;;;5.31;100.00
14232;BME280;7200;52.194;9.900;2022-11-18T03:43:50;99206.13;;;5.28;100.00
14232;BME280;7200;52.194;9.900;2022-11-18T03:46:41;99202.03;;;5.21;100.00
14232;BME280;7200;52.194;9.900;2022-11-18T03:49:10;99209.16;;;5.16;100.00
14232;BME280;7200;52.194;9.900;2022-11-18T03:51:45;99214.81;;;5.29;100.00
14232;BME280;7200;52.194;9.900;2022-11-18T03:54:33;99209.81;;;5.22;100.00
14232;BME280;7200;52.194;9.900;2022-11-18T03:57:02;99211.69;;;5.19;100.00
14232;BME280;7200;52.194;9.900;2022-11-18T03:59:35;99215.19;;;5.18;100.00
14232;BME280;7200;52.194;9.900;2022-11-18T04:02:07;99217.81;;;5.18;100.00
14232;BME280;7200;52.194;9.900;2022-11-18T04:04:34;99216.91;;;5.19;100.00
14232;BME280;7200;52.194;9.900;2022-11-18T04:09:53;99220.75;;;5.09;100.00
14232;BME280;7200;52.194;9.900;2022-11-18T04:12:21;99228.38;;;5.15;100.00
14232;BME280;7200;52.194;9.900;2022-11-18T04:14:47;99218.31;;;5.02;100.00
14232;BME280;7200;52.194;9.900;2022-11-18T04:17:19;99225.22;;;5.05;100.00
14232;BME280;7200;52.194;9.900;2022-11-18T04:19:45;99218.44;;;4.99;100.00
14232;BME280;7200;52.194;9.900;2022-11-18T04:22:11;99220.34;;;4.94;100.00
14232;BME280;7200;52.194;9.900;2022-11-18T04:24:37;99231.59;;;4.96;100.00
14232;BME280;7200;52.194;9.900;2022-11-18T04:27:03;99229.78;;;4.98;100.00
14232;BME280;7200;52.194;9.900;2022-11-18T04:29:29;99229.94;;;4.94;100.00
14232;BME280;7200;52.194;9.900;2022-11-18T04:31:55;99238.56;;;4.97;100.00
14232;BME280;7200;52.194;9.900;2022-11-18T04:34:20;99237.84;;;4.92;100.00
14232;BME280;7200;52.194;9.900;2022-11-18T04:36:45;99231.06;;;4.86;100.00
14232;BME280;7200;52.194;9.900;2022-11-18T04:39:10;99248.13;;;4.97;100.00
14232;BME280;7200;52.194;9.900;2022-11-18T04:41:36;99246.41;;;4.97;100.00
14232;BME280;7200;52.194;9.900;2022-11-18T04:44:20;99247.44;;;4.92;100.00
14232;BME280;7200;52.194;9.900;2022-11-18T04:46:45;99240.66;;;4.86;100.00
14232;BME280;7200;52.194;9.900;2022-11-18T04:49:12;99238.03;;;4.86;100.00
14232;BME280;7200;52.194;9.900;2022-11-18T04:51:39;99258.50;;;5.00;100.00
14232;BME280;7200;52.194;9.900;2022-11-18T04:54:05;99260.25;;;4.99;100.00
14232;BME280;7200;52.194;9.900;2022-11-18T04:56:30;99264.63;;;4.99;100.00
14232;BME280;7200;52.194;9.900;2022-11-18T04:59:00;99257.16;;;4.88;100.00
14232;BME280;7200;52.194;9.900;2022-11-18T05:01:27;99260.53;;;4.92;100.00
14232;BME280;7200;52.194;9.900;2022-11-18T05:03:53;99261.31;;;4.94;100.00
14232;BME280;7200;52.194;9.900;2022-11-18T05:06:18;99279.38;;;5.01;100.00
14232;BME280;7200;52.194;9.900;2022-11-18T05:08:43;99260.59;;;4.88;100.00
14232;BME280;7200;52.194;9.900;2022-11-18T05:11:09;99267.53;;;4.90;100.00
14232;BME280;7200;52.194;9.900;2022-11-18T05:13:53;99265.91;;;4.85;100.00
14232;BME280;7200;52.194;9.900;2022-11-18T05:16:18;99267.72;;;4.83;100.00
14232;BME280;7200;52.194;9.900;2022-11-18T05:18:44;99271.13;;;4.85;100.00
14232;BME280;7200;52.194;9.900;2022-11-18T05:21:09;99277.13;;;4.89;100.00
14232;BME280;7200;52.194;9.900;2022-11-18T05:23:34;99288.25;;;4.96;100.00
14232;BME280;7200;52.194;9.900;2022-11-18T05:26:07;99283.41;;;4.83;100.00
14232;BME280;7200;52.194;9.900;2022-11-18T05:28:33;99292.81;;;4.89;100.00
14232;BME280;7200;52.194;9.900;2022-11-18T05:34:05;99302.41;;;4.88;100.00
14232;BME280;7200;52.194;9.900;2022-11-18T05:36:30;99294.66;;;4.85;100.00
14232;BME280;7200;52.194;9.900;2022-11-18T05:38:59;99300.81;;;4.84;100.00
14232;BME280;7200;52.194;9.900;2022-11-18T05:41:24;99289.72;;;4.76;100.00
14232;BME280;7200;52.194;9.900;2022-11-18T05:44:08;99304.44;;;4.80;100.00
14232;BME280;7200;52.194;9.900;2022-11-18T05:46:34;99303.59;;;4.78;100.00
14232;BME280;7200;52.194;9.900;2022-11-18T05:48:59;99312.25;;;4.80;100.00
14232;BME280;7200;52.194;9.900;2022-11-18T05:51:24;99317.34;;;4.85;100.00
14232;BME280;7200;52.194;9.900;2022-11-18T05:53:51;99319.22;;;4.80;100.00
14232;BME280;7200;52.194;9.900;2022-11-18T05:58:48;99304.63;;;4.73;100.00
14232;BME280;7200;52.194;9.900;2022-11-18T06:01:26;99310.81;;;4.70;100.00
14232;BME280;7200;52.194;9.900;2022-11-18T06:03:53;99313.47;;;4.68;100.00
14232;BME280;7200;52.194;9.900;2022-11-18T06:06:19;99316.84;;;4.72;100.00
14232;BME280;7200;52.194;9.900;2022-11-18T06:08:55;99331.59;;;4.75;100.00
14232;BME280;7200;52.194;9.900;2022-11-18T06:11:21;99331.44;;;4.79;100.00
14232;BME280;7200;52.194;9.900;2022-11-18T06:13:55;99317.88;;;4.66;100.00
14232;BME280;7200;52.194;9.900;2022-11-18T06:16:24;99344.47;;;4.81;100.00
14232;BME280;7200;52.194;9.900;2022-11-18T06:18:51;99336.97;;;4.68;100.00
14232;BME280;7200;52.194;9.900;2022-11-18T06:21:17;99349.78;;;4.78;100.00
14232;BME280;7200;52.194;9.900;2022-11-18T06:23:42;99340.50;;;4.67;100.00
14232;BME280;7200;52.194;9.900;2022-11-18T06:26:08;99344.94;;;4.65;100.00
14232;BME280;7200;52.194;9.900;2022-11-18T06:28:36;99343.91;;;4.71;100.00
14232;BME280;7200;52.194;9.900;2022-11-18T06:31:02;99330.41;;;4.55;100.00
14232;BME280;7200;52.194;9.900;2022-11-18T06:33:27;99345.16;;;4.58;100.00
14232;BME280;7200;52.194;9.900;2022-11-18T06:35:53;99341.91;;;4.49;100.00
14232;BME280;7200;52.194;9.900;2022-11-18T06:38:18;99341.09;;;4.47;100.00
14232;BME280;7200;52.194;9.900;2022-11-18T06:40:43;99363.31;;;4.62;100.00
14232;BME280;7200;52.194;9.900;2022-11-18T06:43:10;99361.72;;;4.57;100.00
14232;BME280;7200;52.194;9.900;2022-11-18T06:45:58;99353.19;;;4.50;100.00
14232;BME280;7200;52.194;9.900;2022-11-18T06:48:43;99355.78;;;4.52;100.00
14232;BME280;7200;52.194;9.900;2022-11-18T06:51:08;99361.72;;;4.57;100.00
14232;BME280;7200;52.194;9.900;2022-11-18T06:53:34;99370.31;;;4.60;100.00
14232;BME280;7200;52.194;9.900;2022-11-18T06:56:07;99358.56;;;4.45;100.00
14232;BME280;7200;52.194;9.900;2022-11-18T06:58:33;99364.41;;;4.54;100.00
14232;BME280;7200;52.194;9.900;2022-11-18T07:01:11;99371.47;;;4.50;100.00
14232;BME280;7200;52.194;9.900;2022-11-18T07:03:37;99363.00;;;4.42;100.00
14232;BME280;7200;52.194;9.900;2022-11-18T07:06:03;99374.94;;;4.52;100.00
14232;BME280;7200;52.194;9.900;2022-11-18T07:08:28;99371.66;;;4.44;100.00
14232;BME280;7200;52.194;9.900;2022-11-18T07:10:53;99364.81;;;4.40;100.00
14232;BME280;7200;52.194;9.900;2022-11-18T07:13:19;99370.81;;;4.43;100.00
14232;BME280;7200;52.194;9.900;2022-11-18T07:15:44;99372.63;;;4.41;100.00
14232;BME280;7200;52.194;9.900;2022-11-18T07:18:09;99382.75;;;4.52;100.00
14232;BME280;7200;52.194;9.900;2022-11-18T07:20:35;99376.03;;;4.43;100.00
14232;BME280;7200;52.194;9.900;2022-11-18T07:23:00;99378.66;;;4.43;100.00
14232;BME280;7200;52.194;9.900;2022-11-18T07:25:25;99382.25;;;4.39;100.00
14232;BME280;7200;52.194;9.900;2022-11-18T07:27:50;99383.31;;;4.32;100.00
14232;BME280;7200;52.194;9.900;2022-11-18T07:30:16;99394.53;;;4.36;100.00
14232;BME280;7200;52.194;9.900;2022-11-18T07:32:41;99396.13;;;4.41;100.00
14232;BME280;7200;52.194;9.900;2022-11-18T07:35:08;99387.69;;;4.32;100.00
14232;BME280;7200;52.194;9.900;2022-11-18T07:37:33;99398.78;;;4.40;100.00
14232;BME280;7200;52.194;9.900;2022-11-18T07:39:58;99393.06;;;4.25;100.00
14232;BME280;7200;52.194;9.900;2022-11-18T07:42:24;99398.06;;;4.33;100.00
14232;BME280;7200;52.194;9.900;2022-11-18T07:44:49;99399.88;;;4.31;100.00
14232;BME280;7200;52.194;9.900;2022-11-18T07:47:15;99393.19;;;4.21;100.00
14232;BME280;7200;52.194;9.900;2022-11-18T07:49:40;99406.34;;;4.16;100.00
14232;BME280;7200;52.194;9.900;2022-11-18T07:52:05;99413.91;;;4.27;100.00
14232;BME280;7200;52.194;9.900;2022-11-18T07:54:30;99412.41;;;4.18;100.00
14232;BME280;7200;52.194;9.900;2022-11-18T07:56:56;99423.69;;;4.20;100.00
14232;BME280;7200;52.194;9.900;2022-11-18T07:59:21;99413.53;;;4.08;100.00
14232;BME280;7200;52.194;9.900;2022-11-18T08:01:46;99426.50;;;4.13;100.00
14232;BME280;7200;52.194;9.900;2022-11-18T08:04:12;99417.09;;;4.05;100.00
14232;BME280;7200;52.194;9.900;2022-11-18T08:06:38;99433.38;;;4.15;100.00
14232;BME280;7200;52.194;9.900;2022-11-18T08:09:04;99425.72;;;4.09;100.00
14232;BME280;7200;52.194;9.900;2022-11-18T08:11:30;99434.44;;;4.08;100.00
14232;BME280;7200;52.194;9.900;2022-11-18T08:13:55;99437.81;;;4.12;100.00
14232;BME280;7200;52.194;9.900;2022-11-18T08:16:23;99424.91;;;4.07;100.00
14232;BME280;7200;52.194;9.900;2022-11-18T08:18:49;99424.06;;;4.05;100.00
14232;BME280;7200;52.194;9.900;2022-11-18T08:21:16;99432.00;;;4.00;100.00
14232;BME280;7200;52.194;9.900;2022-11-18T08:23:42;99444.06;;;4.06;100.00
14232;BME280;7200;52.194;9.900;2022-11-18T08:26:10;99442.25;;;4.08;100.00
14232;BME280;7200;52.194;9.900;2022-11-18T08:28:37;99443.91;;;4.10;100.00
14232;BME280;7200;52.194;9.900;2022-11-18T08:31:15;99449.31;;;4.04;100.00
14232;BME280;7200;52.194;9.900;2022-11-18T08:33:40;99438.31;;;3.92;100.00
14232;BME280;7200;52.194;9.900;2022-11-18T08:38:32;99421.47;;;3.69;100.00
14232;BME280;7200;52.194;9.900;2022-11-18T08:40:57;99430.88;;;3.76;100.00
14232;BME280;7200;52.194;9.900;2022-11-18T08:43:23;99456.56;;;3.93;100.00
14232;BME280;7200;52.194;9.900;2022-11-18T08:45:48;99453.91;;;3.95;100.00
14232;BME280;7200;52.194;9.900;2022-11-18T08:48:13;99458.53;;;3.83;100.00
14232;BME280;7200;52.194;9.900;2022-11-18T08:50:38;99450.84;;;3.79;100.00
14232;BME280;7200;52.194;9.900;2022-11-18T08:53:04;99451.75;;;3.76;100.00
14232;BME280;7200;52.194;9.900;2022-11-18T08:55:29;99467.16;;;3.87;100.00
14232;BME280;7200;52.194;9.900;2022-11-18T08:57:54;99473.25;;;3.86;100.00
14232;BME280;7200;52.194;9.900;2022-11-18T09:00:20;99481.06;;;3.86;100.00
14232;BME280;7200;52.194;9.900;2022-11-18T09:02:45;99487.16;;;3.86;100.00
14232;BME280;7200;52.194;9.900;2022-11-18T09:05:10;99487.00;;;3.93;100.00
14232;BME280;7200;52.194;9.900;2022-11-18T09:07:35;99488.03;;;3.87;100.00
14232;BME280;7200;52.194;9.900;2022-11-18T09:10:01;99494.09;;;3.87;100.00
14232;BME280;7200;52.194;9.900;2022-11-18T09:12:26;99491.44;;;3.89;100.00
14232;BME280;7200;52.194;9.900;2022-11-18T09:14:51;99484.59;;;3.85;100.00
14232;BME280;7200;52.194;9.900;2022-11-18T09:17:17;99489.84;;;3.83;100.00
14232;BME280;7200;52.194;9.900;2022-11-18T09:19:42;99492.47;;;3.82;100.00
14232;BME280;7200;52.194;9.900;2022-11-18T09:22:08;99482.34;;;3.69;100.00
14232;BME280;7200;52.194;9.900;2022-11-18T09:24:34;99503.88;;;3.79;100.00
14232;BME280;7200;52.194;9.900;2022-11-18T09:27:04;99484.28;;;3.61;100.00
14232;BME280;7200;52.194;9.900;2022-11-18T09:29:31;99501.47;;;3.70;100.00
14232;BME280;7200;52.194;9.900;2022-11-18T09:31:56;99497.19;;;3.67;100.00
14232;BME280;7200;52.194;9.900;2022-11-18T09:34:22;99505.78;;;3.71;100.00
14232;BME280;7200;52.194;9.900;2022-11-18T09:36:48;99501.63;;;3.64;100.00
14232;BME280;7200;52.194;9.900;2022-11-18T09:39:13;99497.41;;;3.58;100.00
14232;BME280;7200;52.194;9.900;2022-11-18T09:41:44;99506.13;;;3.56;100.00
14232;BME280;7200;52.194;9.900;2022-11-18T09:49:28;99506.09;;;3.57;100.00
14232;BME280;7200;52.194;9.900;2022-11-18T09:51:54;99510.47;;;3.57;100.00
14232;BME280;7200;52.194;9.900;2022-11-18T09:54:23;99501.09;;;3.48;100.00
14232;BME280;7200;52.194;9.900;2022-11-18T09:56:50;99494.28;;;3.41;100.00
14232;BME280;7200;52.194;9.900;2022-11-18T09:59:19;99507.31;;;3.42;100.00
14232;BME280;7200;52.194;9.900;2022-11-18T10:01:46;99512.50;;;3.42;100.00
14232;BME280;7200;52.194;9.900;2022-11-18T10:04:18;99522.56;;;3.59;100.00
14232;BME280;7200;52.194;9.900;2022-11-18T10:06:46;99523.50;;;3.57;100.00
14232;BME280;7200;52.194;9.900;2022-11-18T10:09:38;99517.44;;;3.56;100.00
14232;BME280;7200;52.194;9.900;2022-11-18T10:15:14;99539.84;;;3.65;100.00
14232;BME280;7200;52.194;9.900;2022-11-18T10:17:50;99528.75;;;3.55;100.00
14232;BME280;7200;52.194;9.900;2022-11-18T10:20:23;99546.56;;;3.75;100.00
14232;BME280;7200;52.194;9.900;2022-11-18T10:23:03;99529.75;;;3.49;100.00
14232;BME280;7200;52.194;9.900;2022-11-18T10:25:31;99529.09;;;3.40;100.00
14232;BME280;7200;52.194;9.900;2022-11-18T10:28:11;99529.25;;;3.34;100.00
14232;BME280;7200;52.194;9.900;2022-11-18T10:30:37;99547.19;;;3.47;100.00
14232;BME280;7200;52.194;9.900;2022-11-18T10:35:47;99547.28;;;3.43;100.00
14232;BME280;7200;52.194;9.900;2022-11-18T10:43:42;99546.66;;;3.31;100.00
14232;BME280;7200;52.194;9.900;2022-11-18T10:46:33;99544.97;;;3.27;100.00
14232;BME280;7200;52.194;9.900;2022-11-18T10:54:17;99553.72;;;3.26;100.00
14232;BME280;7200;52.194;9.900;2022-11-18T10:56:52;99556.22;;;3.31;100.00
14232;BME280;7200;52.194;9.900;2022-11-18T10:59:33;99539.25;;;3.11;100.00
14232;BME280;7200;52.194;9.900;2022-11-18T11:04:50;99553.03;;;3.17;100.00
14232;BME280;7200;52.194;9.900;2022-11-18T11:07:30;99566.75;;;3.26;100.00
14232;BME280;7200;52.194;9.900;2022-11-18T11:12:33;99557.50;;;3.10;100.00
14232;BME280;7200;52.194;9.900;2022-11-18T11:15:03;99554.97;;;3.07;100.00
14232;BME280;7200;52.194;9.900;2022-11-18T11:17:36;99566.28;;;3.06;100.00
14232;BME280;7200;52.194;9.900;2022-11-18T11:20:21;99570.34;;;3.21;100.00
14232;BME280;7200;52.194;9.900;2022-11-18T11:22:47;99568.75;;;3.12;100.00
14232;BME280;7200;52.194;9.900;2022-11-18T11:25:28;99588.41;;;3.30;100.00
14232;BME280;7200;52.194;9.900;2022-11-18T11:28:06;99575.72;;;3.11;100.00
14232;BME280;7200;52.194;9.900;2022-11-18T11:30:36;99567.97;;;3.07;100.00
14232;BME280;7200;52.194;9.900;2022-11-18T11:33:25;99570.56;;;3.08;100.00
14232;BME280;7200;52.194;9.900;2022-11-18T11:38:53;99579.34;;;3.04;100.00
14232;BME280;7200;52.194;9.900;2022-11-18T11:41:29;99582.91;;;2.99;100.00
14232;BME280;7200;52.194;9.900;2022-11-18T11:47:30;99592.50;;;2.98;100.00
14232;BME280;7200;52.194;9.900;2022-11-18T11:50:35;99578.72;;;2.91;100.00
14232;BME280;7200;52.194;9.900;2022-11-18T11:59:51;99589.13;;;2.91;100.00
14232;BME280;7200;52.194;9.900;2022-11-18T12:05:06;99603.69;;;3.03;100.00
14232;BME280;7200;52.194;9.900;2022-11-18T12:07:44;99599.41;;;2.99;100.00
14232;BME280;7200;52.194;9.900;2022-11-18T12:12:51;99594.34;;;2.91;100.00
14232;BME280;7200;52.194;9.900;2022-11-18T12:20:44;99592.03;;;2.76;100.00
14232;BME280;7200;52.194;9.900;2022-11-18T12:25:51;99602.38;;;2.81;100.00
14232;BME280;7200;52.194;9.900;2022-11-18T12:28:41;99601.50;;;2.79;100.00
14232;BME280;7200;52.194;9.900;2022-11-18T12:33:50;99602.38;;;2.81;100.00
14232;BME280;7200;52.194;9.900;2022-11-18T12:38:54;99605.81;;;2.83;100.00
14232;BME280;7200;52.194;9.900;2022-11-18T12:44:23;99595.63;;;2.67;100.00
14232;BME280;7200;52.194;9.900;2022-11-18T12:46:51;99612.81;;;2.79;100.00
14232;BME280;7200;52.194;9.900;2022-11-18T12:51:47;99598.25;;;2.67;100.00
14232;BME280;7200;52.194;9.900;2022-11-18T12:56:53;99634.34;;;2.89;100.00
14232;BME280;7200;52.194;9.900;2022-11-18T12:59:36;99627.53;;;2.80;100.00
14232;BME280;7200;52.194;9.900;2022-11-18T13:04:36;99625.84;;;2.79;100.00
14232;BME280;7200;52.194;9.900;2022-11-18T13:07:04;99624.91;;;2.83;100.00
14232;BME280;7200;52.194;9.900;2022-11-18T13:09:33;99622.34;;;2.79;100.00
14232;BME280;7200;52.194;9.900;2022-11-18T13:12:05;99606.94;;;2.68;100.00
14232;BME280;7200;52.194;9.900;2022-11-18T13:14:35;99596.72;;;2.56;100.00
14232;BME280;7200;52.194;9.900;2022-11-18T13:17:33;99621.63;;;2.70;100.00
14232;BME280;7200;52.194;9.900;2022-11-18T13:22:51;99607.22;;;2.52;100.00
14232;BME280;7200;52.194;9.900;2022-11-18T13:25:35;99609.75;;;2.54;100.00
14232;BME280;7200;52.194;9.900;2022-11-18T13:28:17;99614.91;;;2.59;100.00
14232;BME280;7200;52.194;9.900;2022-11-18T13:31:10;99611.53;;;2.52;100.00
14232;BME280;7200;52.194;9.900;2022-11-18T13:33:37;99627.94;;;2.57;100.00
14232;BME280;7200;52.194;9.900;2022-11-18T13:36:21;99628.88;;;2.53;100.00
14232;BME280;7200;52.194;9.900;2022-11-18T13:38:57;99627.94;;;2.57;100.00
14232;BME280;7200;52.194;9.900;2022-11-18T13:41:24;99644.28;;;2.67;100.00
14232;BME280;7200;52.194;9.900;2022-11-18T13:44:09;99642.63;;;2.61;100.00
14232;BME280;7200;52.194;9.900;2022-11-18T13:46:35;99638.31;;;2.60;100.00
14232;BME280;7200;52.194;9.900;2022-11-18T13:49:02;99636.72;;;2.51;100.00
14232;BME280;7200;52.194;9.900;2022-11-18T13:51:28;99627.31;;;2.43;100.00
14232;BME280;7200;52.194;9.900;2022-11-18T13:53:54;99618.69;;;2.39;100.00
14232;BME280;7200;52.194;9.900;2022-11-18T13:56:23;99623.09;;;2.36;100.00
14232;BME280;7200;52.194;9.900;2022-11-18T14:01:18;99643.75;;;2.46;100.00
14232;BME280;7200;52.194;9.900;2022-11-18T14:04:21;99623.25;;;2.26;100.00
14232;BME280;7200;52.194;9.900;2022-11-18T14:06:47;99620.81;;;2.14;100.00
14232;BME280;7200;52.194;9.900;2022-11-18T14:11:56;99629.53;;;2.11;100.00
14232;BME280;7200;52.194;9.900;2022-11-18T14:14:33;99630.38;;;2.13;100.00
14232;BME280;7200;52.194;9.900;2022-11-18T14:17:25;99607.19;;;1.98;100.00
14232;BME280;7200;52.194;9.900;2022-11-18T14:19:58;99635.56;;;2.15;100.00
14232;BME280;7200;52.194;9.900;2022-11-18T14:22:28;99621.81;;;2.05;100.00
14232;BME280;7200;52.194;9.900;2022-11-18T14:24:59;99624.53;;;1.98;100.00
14232;BME280;7200;52.194;9.900;2022-11-18T14:30:34;99630.66;;;1.93;100.00
14232;BME280;7200;52.194;9.900;2022-11-18T14:35:37;99638.59;;;1.84;100.00
14232;BME280;7200;52.194;9.900;2022-11-18T14:40:38;99649.06;;;1.78;100.00
14232;BME280;7200;52.194;9.900;2022-11-18T14:43:04;99649.94;;;1.77;100.00
14232;BME280;7200;52.194;9.900;2022-11-18T14:45:30;99649.16;;;1.72;100.00
14232;BME280;7200;52.194;9.900;2022-11-18T14:47:55;99652.53;;;1.79;100.00
14232;BME280;7200;52.194;9.900;2022-11-18T14:50:20;99634.59;;;1.59;100.00
14232;BME280;7200;52.194;9.900;2022-11-18T14:52:46;99645.00;;;1.60;100.00
14232;BME280;7200;52.194;9.900;2022-11-18T14:55:11;99657.94;;;1.63;100.00
14232;BME280;7200;52.194;9.900;2022-11-18T14:57:37;99681.09;;;1.83;100.00
14232;BME280;7200;52.194;9.900;2022-11-18T15:00:03;99677.75;;;1.73;100.00
14232;BME280;7200;52.194;9.900;2022-11-18T15:02:29;99695.81;;;1.83;100.00
14232;BME280;7200;52.194;9.900;2022-11-18T15:04:54;99660.53;;;1.62;100.00
14232;BME280;7200;52.194;9.900;2022-11-18T15:07:20;99685.47;;;1.80;100.00
14232;BME280;7200;52.194;9.900;2022-11-18T15:09:45;99678.53;;;1.77;100.00
14232;BME280;7200;52.194;9.900;2022-11-18T15:12:10;99679.47;;;1.74;100.00
14232;BME280;7200;52.194;9.900;2022-11-18T15:14:36;99671.75;;;1.68;100.00
14232;BME280;7200;52.194;9.900;2022-11-18T15:17:02;99663.22;;;1.57;100.00
14232;BME280;7200;52.194;9.900;2022-11-18T15:19:27;99665.00;;;1.52;100.00
14232;BME280;7200;52.194;9.900;2022-11-18T15:21:53;99678.06;;;1.49;100.00
14232;BME280;7200;52.194;9.900;2022-11-18T15:24:18;99691.81;;;1.59;100.00